CheckWX is a tool to help pilots better visualize weather data.  It is not intended as a substitute for an official pre-flight weather briefing.

08:16:14 UTC

EGWU TAF
RAF Northolt Airport
London, United Kingdom
TAF AMD EGWU 060700Z 0607/0624 22012KT 9999 BKN010 TEMPO 0607/0612 4000 RA PROB40 TEMPO 0607/0612 23015G25KT PROB30 TEMPO 0609/0612 3000 RADZ BKN006 BECMG 0611/0614 FEW016 BKN028 TEMPO 0612/0618 25018G28KT 5000 SHRA BKN016

Dec-6@
07:00 UTC

Dec-6 @ 07:00 UTC

Dec-6@
11:00 UTC

Dec-6 @ 11:00 UTC

TAF AMD EGWU 060700Z 0607/0624 22012KT 9999 BKN010
Wind
  • 220° at 12 KTS
Cloud Levels
  • Broken at 1,000' AGL

Dec-6@
07:00 UTC

Dec-6 @ 07:00 UTC

Dec-6@
12:00 UTC

Dec-6 @ 12:00 UTC

PROB40 TEMPO 0607/0612 23015G25KT

Temporary - 40% Likelihood

Temporary - 40% Likelihood during this time.

Wind
  • 230° at 15 KTS
  • {Gusting to 25 KTS

Dec-6@
07:00 UTC

Dec-6 @ 07:00 UTC

Dec-6@
12:00 UTC

Dec-6 @ 12:00 UTC

TEMPO 0607/0612 4000 RA

Temporary

Temporary Changes expected for less than half the time period

Conditions
Rain

Dec-6@
09:00 UTC

Dec-6 @ 09:00 UTC

Dec-6@
12:00 UTC

Dec-6 @ 12:00 UTC

PROB30 TEMPO 0609/0612 3000 RADZ BKN006

Temporary - 30% Likelihood

Temporary - 30% Likelihood during this time.

Conditions
Rain, Drizzle
Cloud Levels
  • Broken at 600' AGL

Dec-6@
11:00 UTC

Dec-6 @ 11:00 UTC

Dec-7@
00:00 UTC

Dec-7 @ 00:00 UTC

BECMG 0611/0614 FEW016 BKN028

Becoming

Becoming Conditions expected by Fri, Dec 6, 2019 @ 14:00 UTC

Wind
  • 220° at 12 KTS
Cloud Levels
  • Few at 1,600' AGL
  • Broken at 2,800' AGL

Dec-6@
12:00 UTC

Dec-6 @ 12:00 UTC

Dec-6@
18:00 UTC

Dec-6 @ 18:00 UTC

TEMPO 0612/0618 25018G28KT 5000 SHRA BKN016

Temporary

Temporary Changes expected for less than half the time period

Wind
  • 250° at 18 KTS
  • {Gusting to 28 KTS
Conditions
Rain
Cloud Levels
  • Broken at 1,600' AGL